sensor_id;sensor_type;location;lat;lon;timestamp;pressure;altitude;pressure_sealevel;temperature
78859;BMP280;68210;52.032;4.634;2024-01-15T00:00:48;100207.38;;;4.23
78859;BMP280;68210;52.032;4.634;2024-01-15T00:02:48;100202.00;;;4.23
78859;BMP280;68210;52.032;4.634;2024-01-15T00:04:48;100202.09;;;4.35
78859;BMP280;68210;52.032;4.634;2024-01-15T00:06:49;100197.56;;;4.27
78859;BMP280;68210;52.032;4.634;2024-01-15T00:08:50;100196.66;;;4.23
78859;BMP280;68210;52.032;4.634;2024-01-15T00:10:50;100188.88;;;4.30
78859;BMP280;68210;52.032;4.634;2024-01-15T00:12:50;100195.13;;;4.43
78859;BMP280;68210;52.032;4.634;2024-01-15T00:14:51;100188.03;;;4.38
78859;BMP280;68210;52.032;4.634;2024-01-15T00:16:52;100175.56;;;4.42
78859;BMP280;68210;52.032;4.634;2024-01-15T00:18:54;100178.25;;;4.42
78859;BMP280;68210;52.032;4.634;2024-01-15T00:20:55;100179.97;;;4.10
78859;BMP280;68210;52.032;4.634;2024-01-15T00:22:55;100161.94;;;4.19
78859;BMP280;68210;52.032;4.634;2024-01-15T00:24:56;100170.00;;;4.19
78859;BMP280;68210;52.032;4.634;2024-01-15T00:26:56;100164.47;;;4.23
78859;BMP280;68210;52.032;4.634;2024-01-15T00:28:56;100158.44;;;4.26
78859;BMP280;68210;52.032;4.634;2024-01-15T00:30:57;100159.09;;;4.23
78859;BMP280;68210;52.032;4.634;2024-01-15T00:32:57;100161.78;;;4.23
78859;BMP280;68210;52.032;4.634;2024-01-15T00:34:57;100154.56;;;4.16
78859;BMP280;68210;52.032;4.634;2024-01-15T00:36:58;100146.09;;;4.05
78859;BMP280;68210;52.032;4.634;2024-01-15T00:38:58;100148.94;;;4.00
78859;BMP280;68210;52.032;4.634;2024-01-15T00:40:58;100151.56;;;4.09
78859;BMP280;68210;52.032;4.634;2024-01-15T00:42:59;100145.50;;;3.92
78859;BMP280;68210;52.032;4.634;2024-01-15T00:44:59;100138.84;;;3.97
78859;BMP280;68210;52.032;4.634;2024-01-15T00:47:00;100142.41;;;4.10
78859;BMP280;68210;52.032;4.634;2024-01-15T00:49:01;100143.78;;;4.24
78859;BMP280;68210;52.032;4.634;2024-01-15T00:51:06;100141.41;;;4.22
78859;BMP280;68210;52.032;4.634;2024-01-15T00:53:07;100139.72;;;4.10
78859;BMP280;68210;52.032;4.634;2024-01-15T00:55:07;100143.66;;;4.12
78859;BMP280;68210;52.032;4.634;2024-01-15T00:57:08;100140.19;;;4.12
78859;BMP280;68210;52.032;4.634;2024-01-15T00:59:08;100136.69;;;4.20
78859;BMP280;68210;52.032;4.634;2024-01-15T01:01:10;100131.31;;;4.20
78859;BMP280;68210;52.032;4.634;2024-01-15T01:03:10;100135.25;;;4.22
78859;BMP280;68210;52.032;4.634;2024-01-15T01:05:11;100142.28;;;4.06
78859;BMP280;68210;52.032;4.634;2024-01-15T01:07:11;100140.38;;;4.07
78859;BMP280;68210;52.032;4.634;2024-01-15T01:09:11;100126.16;;;4.15
78859;BMP280;68210;52.032;4.634;2024-01-15T01:11:15;100138.34;;;4.04
78859;BMP280;68210;52.032;4.634;2024-01-15T01:13:16;100125.22;;;4.11
78859;BMP280;68210;52.032;4.634;2024-01-15T01:15:16;100124.22;;;4.23
78859;BMP280;68210;52.032;4.634;2024-01-15T01:17:17;100121.97;;;4.25
78859;BMP280;68210;52.032;4.634;2024-01-15T01:19:17;100127.53;;;4.21
78859;BMP280;68210;52.032;4.634;2024-01-15T01:21:18;100126.91;;;4.23
78859;BMP280;68210;52.032;4.634;2024-01-15T01:23:18;100120.94;;;4.18
78859;BMP280;68210;52.032;4.634;2024-01-15T01:25:18;100114.72;;;4.26
78859;BMP280;68210;52.032;4.634;2024-01-15T01:27:19;100118.09;;;4.15
78859;BMP280;68210;52.032;4.634;2024-01-15T01:29:19;100124.53;;;4.22
78859;BMP280;68210;52.032;4.634;2024-01-15T01:31:20;100115.88;;;4.17
78859;BMP280;68210;52.032;4.634;2024-01-15T01:33:20;100119.03;;;4.19
78859;BMP280;68210;52.032;4.634;2024-01-15T01:35:20;100115.59;;;4.10
78859;BMP280;68210;52.032;4.634;2024-01-15T01:37:21;100113.91;;;4.05
78859;BMP280;68210;52.032;4.634;2024-01-15T01:39:21;100107.75;;;4.05
78859;BMP280;68210;52.032;4.634;2024-01-15T01:41:21;100120.34;;;4.13
78859;BMP280;68210;52.032;4.634;2024-01-15T01:43:24;100114.03;;;4.09
78859;BMP280;68210;52.032;4.634;2024-01-15T01:45:24;100121.00;;;4.01
78859;BMP280;68210;52.032;4.634;2024-01-15T01:47:24;100113.47;;;3.95
78859;BMP280;68210;52.032;4.634;2024-01-15T01:49:27;100120.22;;;4.01
78859;BMP280;68210;52.032;4.634;2024-01-15T01:51:28;100119.75;;;3.99
78859;BMP280;68210;52.032;4.634;2024-01-15T01:53:29;100117.59;;;3.92
78859;BMP280;68210;52.032;4.634;2024-01-15T01:55:31;100115.56;;;3.90
78859;BMP280;68210;52.032;4.634;2024-01-15T01:57:34;100127.06;;;3.90
78859;BMP280;68210;52.032;4.634;2024-01-15T01:59:35;100115.41;;;3.86
78859;BMP280;68210;52.032;4.634;2024-01-15T02:01:36;100124.84;;;3.92
78859;BMP280;68210;52.032;4.634;2024-01-15T02:03:37;100120.91;;;3.90
78859;BMP280;68210;52.032;4.634;2024-01-15T02:05:39;100116.94;;;3.95
78859;BMP280;68210;52.032;4.634;2024-01-15T02:07:40;100120.13;;;3.89
78859;BMP280;68210;52.032;4.634;2024-01-15T02:09:41;100111.44;;;3.92
78859;BMP280;68210;52.032;4.634;2024-01-15T02:11:42;100112.22;;;3.92
78859;BMP280;68210;52.032;4.634;2024-01-15T02:13:42;100099.25;;;4.03
78859;BMP280;68210;52.032;4.634;2024-01-15T02:15:44;100112.69;;;3.94
78859;BMP280;68210;52.032;4.634;2024-01-15T02:19:57;100102.66;;;3.83
78859;BMP280;68210;52.032;4.634;2024-01-15T02:21:57;100109.44;;;3.72
78859;BMP280;68210;52.032;4.634;2024-01-15T02:23:58;100111.47;;;3.84
78859;BMP280;68210;52.032;4.634;2024-01-15T02:25:58;100102.63;;;3.92
78859;BMP280;68210;52.032;4.634;2024-01-15T02:27:58;100103.00;;;4.02
78859;BMP280;68210;52.032;4.634;2024-01-15T02:29:59;100089.81;;;3.97
78859;BMP280;68210;52.032;4.634;2024-01-15T02:31:59;100102.84;;;4.07
78859;BMP280;68210;52.032;4.634;2024-01-15T02:34:04;100088.22;;;3.96
78859;BMP280;68210;52.032;4.634;2024-01-15T02:36:08;100096.97;;;3.85
78859;BMP280;68210;52.032;4.634;2024-01-15T02:38:08;100103.44;;;3.84
78859;BMP280;68210;52.032;4.634;2024-01-15T02:40:09;100090.47;;;3.94
78859;BMP280;68210;52.032;4.634;2024-01-15T02:42:10;100094.06;;;3.98
78859;BMP280;68210;52.032;4.634;2024-01-15T02:44:10;100090.66;;;3.89
78859;BMP280;68210;52.032;4.634;2024-01-15T02:46:10;100099.50;;;3.81
78859;BMP280;68210;52.032;4.634;2024-01-15T02:48:11;100094.75;;;3.87
78859;BMP280;68210;52.032;4.634;2024-01-15T02:50:11;100092.53;;;3.89
78859;BMP280;68210;52.032;4.634;2024-01-15T02:52:11;100086.50;;;4.00
78859;BMP280;68210;52.032;4.634;2024-01-15T02:54:12;100075.22;;;3.86
78859;BMP280;68210;52.032;4.634;2024-01-15T02:56:12;100088.97;;;3.76
78859;BMP280;68210;52.032;4.634;2024-01-15T02:58:13;100088.50;;;3.74
78859;BMP280;68210;52.032;4.634;2024-01-15T03:00:13;100091.47;;;3.81
78859;BMP280;68210;52.032;4.634;2024-01-15T03:02:14;100089.09;;;3.80
78859;BMP280;68210;52.032;4.634;2024-01-15T03:04:14;100092.25;;;3.82
78859;BMP280;68210;52.032;4.634;2024-01-15T03:06:14;100102.53;;;3.71
78859;BMP280;68210;52.032;4.634;2024-01-15T03:08:15;100086.38;;;3.88
78859;BMP280;68210;52.032;4.634;2024-01-15T03:10:15;100086.44;;;3.71
78859;BMP280;68210;52.032;4.634;2024-01-15T03:12:15;100090.25;;;3.70
78859;BMP280;68210;52.032;4.634;2024-01-15T03:14:16;100101.63;;;3.67
78859;BMP280;68210;52.032;4.634;2024-01-15T03:16:17;100087.44;;;3.59
78859;BMP280;68210;52.032;4.634;2024-01-15T03:18:20;100099.38;;;3.69
78859;BMP280;68210;52.032;4.634;2024-01-15T03:20:20;100088.75;;;3.90
78859;BMP280;68210;52.032;4.634;2024-01-15T03:22:20;100084.34;;;3.85
78859;BMP280;68210;52.032;4.634;2024-01-15T03:24:21;100083.69;;;3.60
78859;BMP280;68210;52.032;4.634;2024-01-15T03:26:21;100071.13;;;3.80
78859;BMP280;68210;52.032;4.634;2024-01-15T03:28:21;100073.44;;;3.90
78859;BMP280;68210;52.032;4.634;2024-01-15T03:30:22;100079.31;;;3.84
78859;BMP280;68210;52.032;4.634;2024-01-15T03:32:22;100076.28;;;3.85
78859;BMP280;68210;52.032;4.634;2024-01-15T03:34:22;100077.75;;;3.74
78859;BMP280;68210;52.032;4.634;2024-01-15T03:36:23;100079.59;;;3.91
78859;BMP280;68210;52.032;4.634;2024-01-15T03:38:23;100083.50;;;3.93
78859;BMP280;68210;52.032;4.634;2024-01-15T03:40:23;100087.63;;;3.91
78859;BMP280;68210;52.032;4.634;2024-01-15T03:42:24;100086.75;;;3.78
78859;BMP280;68210;52.032;4.634;2024-01-15T03:44:25;100096.81;;;3.81
78859;BMP280;68210;52.032;4.634;2024-01-15T03:46:25;100086.44;;;3.71
78859;BMP280;68210;52.032;4.634;2024-01-15T03:48:26;100087.16;;;3.52
78859;BMP280;68210;52.032;4.634;2024-01-15T03:50:26;100075.50;;;3.48
78859;BMP280;68210;52.032;4.634;2024-01-15T03:52:26;100080.88;;;3.48
78859;BMP280;68210;52.032;4.634;2024-01-15T03:54:27;100075.50;;;3.48
78859;BMP280;68210;52.032;4.634;2024-01-15T03:56:27;100075.66;;;3.51
78859;BMP280;68210;52.032;4.634;2024-01-15T03:58:27;100074.59;;;3.44
78859;BMP280;68210;52.032;4.634;2024-01-15T04:00:28;100072.97;;;3.60
78859;BMP280;68210;52.032;4.634;2024-01-15T04:02:28;100071.25;;;3.47
78859;BMP280;68210;52.032;4.634;2024-01-15T04:04:28;100074.84;;;3.51
78859;BMP280;68210;52.032;4.634;2024-01-15T04:06:29;100074.53;;;3.61
78859;BMP280;68210;52.032;4.634;2024-01-15T04:08:29;100074.53;;;3.61
78859;BMP280;68210;52.032;4.634;2024-01-15T04:10:30;100072.34;;;3.54
78859;BMP280;68210;52.032;4.634;2024-01-15T04:12:30;100072.00;;;3.56
78859;BMP280;68210;52.032;4.634;2024-01-15T04:14:31;100060.03;;;3.53
78859;BMP280;68210;52.032;4.634;2024-01-15T04:16:31;100061.28;;;3.56
78859;BMP280;68210;52.032;4.634;2024-01-15T04:18:31;100063.53;;;3.54
78859;BMP280;68210;52.032;4.634;2024-01-15T04:20:32;100060.84;;;3.54
78859;BMP280;68210;52.032;4.634;2024-01-15T04:22:33;100067.38;;;3.36
78859;BMP280;68210;52.032;4.634;2024-01-15T04:24:34;100049.72;;;3.35
78859;BMP280;68210;52.032;4.634;2024-01-15T04:26:34;100051.09;;;3.49
78859;BMP280;68210;52.032;4.634;2024-01-15T04:28:34;100043.94;;;3.62
78859;BMP280;68210;52.032;4.634;2024-01-15T04:30:35;100051.34;;;3.64
78859;BMP280;68210;52.032;4.634;2024-01-15T04:32:35;100036.91;;;3.77
78859;BMP280;68210;52.032;4.634;2024-01-15T04:34:37;100035.00;;;3.86
78859;BMP280;68210;52.032;4.634;2024-01-15T04:36:40;100033.41;;;3.85
78859;BMP280;68210;52.032;4.634;2024-01-15T04:38:41;100033.56;;;3.89
78859;BMP280;68210;52.032;4.634;2024-01-15T04:40:42;100034.06;;;3.82
78859;BMP280;68210;52.032;4.634;2024-01-15T04:42:42;100035.53;;;3.71
78859;BMP280;68210;52.032;4.634;2024-01-15T04:44:43;100035.06;;;3.69
78859;BMP280;68210;52.032;4.634;2024-01-15T04:46:43;100032.25;;;3.66
78859;BMP280;68210;52.032;4.634;2024-01-15T04:48:44;100031.47;;;3.65
78859;BMP280;68210;52.032;4.634;2024-01-15T04:50:44;100032.44;;;3.61
78859;BMP280;68210;52.032;4.634;2024-01-15T04:52:44;100027.94;;;3.45
78859;BMP280;68210;52.032;4.634;2024-01-15T04:54:45;100027.47;;;3.43
78859;BMP280;68210;52.032;4.634;2024-01-15T04:56:45;100033.69;;;3.18
78859;BMP280;68210;52.032;4.634;2024-01-15T04:58:45;100022.06;;;3.14
78859;BMP280;68210;52.032;4.634;2024-01-15T05:00:46;100026.00;;;3.17
78859;BMP280;68210;52.032;4.634;2024-01-15T05:02:47;100021.41;;;3.17
78859;BMP280;68210;52.032;4.634;2024-01-15T05:04:47;100022.66;;;3.28
78859;BMP280;68210;52.032;4.634;2024-01-15T05:06:48;100016.34;;;3.24
78859;BMP280;68210;52.032;4.634;2024-01-15T05:08:48;100018.75;;;3.17
78859;BMP280;68210;52.032;4.634;2024-01-15T05:10:49;100008.97;;;3.13
78859;BMP280;68210;52.032;4.634;2024-01-15T05:12:49;100017.03;;;3.04
78859;BMP280;68210;52.032;4.634;2024-01-15T05:14:49;100015.16;;;2.97
78859;BMP280;68210;52.032;4.634;2024-01-15T05:16:50;100009.50;;;2.98
78859;BMP280;68210;52.032;4.634;2024-01-15T05:18:50;100006.38;;;2.88
78859;BMP280;68210;52.032;4.634;2024-01-15T05:20:51;100026.22;;;2.87
78859;BMP280;68210;52.032;4.634;2024-01-15T05:22:52;100020.56;;;2.80
78859;BMP280;68210;52.032;4.634;2024-01-15T05:24:52;100030.78;;;2.78
78859;BMP280;68210;52.032;4.634;2024-01-15T05:26:53;100030.94;;;2.90
78859;BMP280;68210;52.032;4.634;2024-01-15T05:28:53;100030.13;;;2.89
78859;BMP280;68210;52.032;4.634;2024-01-15T05:30:53;100022.13;;;2.98
78859;BMP280;68210;52.032;4.634;2024-01-15T05:32:55;100028.13;;;2.78
78859;BMP280;68210;52.032;4.634;2024-01-15T05:34:56;100022.44;;;2.88
78859;BMP280;68210;52.032;4.634;2024-01-15T05:36:56;100012.50;;;2.97
78859;BMP280;68210;52.032;4.634;2024-01-15T05:38:56;100015.03;;;2.93
78859;BMP280;68210;52.032;4.634;2024-01-15T05:40:57;100021.94;;;2.94
78859;BMP280;68210;52.032;4.634;2024-01-15T05:42:57;100015.81;;;2.94
78859;BMP280;68210;52.032;4.634;2024-01-15T05:44:57;100028.13;;;2.78
78859;BMP280;68210;52.032;4.634;2024-01-15T05:46:59;100021.50;;;2.75
78859;BMP280;68210;52.032;4.634;2024-01-15T05:49:00;100010.81;;;2.67
78859;BMP280;68210;52.032;4.634;2024-01-15T05:51:00;100019.00;;;2.62
78859;BMP280;68210;52.032;4.634;2024-01-15T05:53:00;100016.31;;;2.62
78859;BMP280;68210;52.032;4.634;2024-01-15T05:55:01;100002.50;;;2.60
78859;BMP280;68210;52.032;4.634;2024-01-15T05:57:01;99999.63;;;2.65
78859;BMP280;68210;52.032;4.634;2024-01-15T05:59:02;100002.63;;;2.72
78859;BMP280;68210;52.032;4.634;2024-01-15T06:01:02;100005.16;;;2.77
78859;BMP280;68210;52.032;4.634;2024-01-15T06:03:02;99999.47;;;2.78
78859;BMP280;68210;52.032;4.634;2024-01-15T06:05:03;99991.28;;;2.75
78859;BMP280;68210;52.032;4.634;2024-01-15T06:07:03;99998.53;;;2.74
78859;BMP280;68210;52.032;4.634;2024-01-15T06:09:04;99993.03;;;2.71
78859;BMP280;68210;52.032;4.634;2024-01-15T06:11:09;99992.56;;;2.69
78859;BMP280;68210;52.032;4.634;2024-01-15T06:13:09;99988.78;;;2.70
78859;BMP280;68210;52.032;4.634;2024-01-15T06:15:10;99988.78;;;2.70
78859;BMP280;68210;52.032;4.634;2024-01-15T06:17:10;100000.28;;;2.79
78859;BMP280;68210;52.032;4.634;2024-01-15T06:19:11;100006.53;;;2.83
78859;BMP280;68210;52.032;4.634;2024-01-15T06:21:11;100004.59;;;3.00
78859;BMP280;68210;52.032;4.634;2024-01-15T06:23:14;100007.94;;;3.05
78859;BMP280;68210;52.032;4.634;2024-01-15T06:25:14;100009.75;;;3.13
78859;BMP280;68210;52.032;4.634;2024-01-15T06:27:15;100007.50;;;3.32
78859;BMP280;68210;52.032;4.634;2024-01-15T06:29:15;100012.38;;;3.38
78859;BMP280;68210;52.032;4.634;2024-01-15T06:31:16;100003.34;;;3.43
78859;BMP280;68210;52.032;4.634;2024-01-15T06:33:16;100014.59;;;3.28
78859;BMP280;68210;52.032;4.634;2024-01-15T06:35:16;100018.47;;;3.02
78859;BMP280;68210;52.032;4.634;2024-01-15T06:37:17;100019.75;;;2.88
78859;BMP280;68210;52.032;4.634;2024-01-15T06:39:20;100020.88;;;2.70
78859;BMP280;68210;52.032;4.634;2024-01-15T06:41:20;100005.63;;;2.62
78859;BMP280;68210;52.032;4.634;2024-01-15T06:43:20;99982.16;;;2.76
78859;BMP280;68210;52.032;4.634;2024-01-15T06:45:21;99981.69;;;2.82
78859;BMP280;68210;52.032;4.634;2024-01-15T06:47:21;99992.38;;;2.82
78859;BMP280;68210;52.032;4.634;2024-01-15T06:49:21;99982.50;;;2.66
78859;BMP280;68210;52.032;4.634;2024-01-15T06:51:22;99988.50;;;2.63
78859;BMP280;68210;52.032;4.634;2024-01-15T06:53:22;99995.72;;;2.71
78859;BMP280;68210;52.032;4.634;2024-01-15T06:55:22;100002.94;;;2.71
78859;BMP280;68210;52.032;4.634;2024-01-15T06:57:23;100006.88;;;2.65
78859;BMP280;68210;52.032;4.634;2024-01-15T06:59:23;100008.91;;;2.84
78859;BMP280;68210;52.032;4.634;2024-01-15T07:01:24;100022.91;;;2.98
78859;BMP280;68210;52.032;4.634;2024-01-15T07:03:24;100042.28;;;2.95
78859;BMP280;68210;52.032;4.634;2024-01-15T07:05:24;100036.75;;;2.92
78859;BMP280;68210;52.032;4.634;2024-01-15T07:07:25;100026.03;;;2.92
78859;BMP280;68210;52.032;4.634;2024-01-15T07:09:29;100024.34;;;2.62
78859;BMP280;68210;52.032;4.634;2024-01-15T07:11:29;100029.06;;;2.65
78859;BMP280;68210;52.032;4.634;2024-01-15T07:13:29;100040.41;;;2.62
78859;BMP280;68210;52.032;4.634;2024-01-15T07:15:30;100025.94;;;2.55
78859;BMP280;68210;52.032;4.634;2024-01-15T07:17:30;100019.19;;;2.57
78859;BMP280;68210;52.032;4.634;2024-01-15T07:19:31;100009.44;;;2.53
78859;BMP280;68210;52.032;4.634;2024-01-15T07:21:31;100014.63;;;2.49
78859;BMP280;68210;52.032;4.634;2024-01-15T07:23:32;100006.25;;;2.59
78859;BMP280;68210;52.032;4.634;2024-01-15T07:25:32;100008.16;;;2.50
78859;BMP280;68210;52.032;4.634;2024-01-15T07:27:33;100001.84;;;2.46
78859;BMP280;68210;52.032;4.634;2024-01-15T07:29:33;99999.19;;;2.46
78859;BMP280;68210;52.032;4.634;2024-01-15T07:31:34;99998.25;;;2.42
78859;BMP280;68210;52.032;4.634;2024-01-15T07:33:34;100004.22;;;2.40
78859;BMP280;68210;52.032;4.634;2024-01-15T07:35:34;99995.28;;;2.44
78859;BMP280;68210;52.032;4.634;2024-01-15T07:37:35;100006.75;;;2.53
78859;BMP280;68210;52.032;4.634;2024-01-15T07:39:35;99994.63;;;2.55
78859;BMP280;68210;52.032;4.634;2024-01-15T07:41:35;99989.44;;;2.50
78859;BMP280;68210;52.032;4.634;2024-01-15T07:43:39;100005.66;;;2.45
78859;BMP280;68210;52.032;4.634;2024-01-15T07:45:39;100000.78;;;2.47
78859;BMP280;68210;52.032;4.634;2024-01-15T07:47:39;100006.59;;;2.49
78859;BMP280;68210;52.032;4.634;2024-01-15T07:49:40;100024.06;;;2.55
78859;BMP280;68210;52.032;4.634;2024-01-15T07:51:40;100025.13;;;2.54
78859;BMP280;68210;52.032;4.634;2024-01-15T07:53:41;100019.47;;;2.56
78859;BMP280;68210;52.032;4.634;2024-01-15T07:55:41;100021.69;;;2.54
78859;BMP280;68210;52.032;4.634;2024-01-15T07:57:42;100012.41;;;2.51
78859;BMP280;68210;52.032;4.634;2024-01-15T07:59:44;100016.34;;;2.54
78859;BMP280;68210;52.032;4.634;2024-01-15T08:01:44;100013.66;;;2.54
78859;BMP280;68210;52.032;4.634;2024-01-15T08:03:45;100008.94;;;2.59
78859;BMP280;68210;52.032;4.634;2024-01-15T08:05:45;100003.13;;;2.66
78859;BMP280;68210;52.032;4.634;2024-01-15T08:07:47;100014.28;;;2.68
78859;BMP280;68210;52.032;4.634;2024-01-15T08:09:48;100022.13;;;2.81
78859;BMP280;68210;52.032;4.634;2024-01-15T08:11:49;100033.19;;;2.71
78859;BMP280;68210;52.032;4.634;2024-01-15T08:13:49;100023.53;;;2.78
78859;BMP280;68210;52.032;4.634;2024-01-15T08:15:50;100024.97;;;2.76
78859;BMP280;68210;52.032;4.634;2024-01-15T08:17:50;100014.84;;;3.06
78859;BMP280;68210;52.032;4.634;2024-01-15T08:19:50;100007.88;;;3.22
78859;BMP280;68210;52.032;4.634;2024-01-15T08:21:51;100005.31;;;3.26
78859;BMP280;68210;52.032;4.634;2024-01-15T08:23:51;100007.53;;;3.24
78859;BMP280;68210;52.032;4.634;2024-01-15T08:25:52;100007.50;;;3.32
78859;BMP280;68210;52.032;4.634;2024-01-15T08:27:52;100010.97;;;3.33
78859;BMP280;68210;52.032;4.634;2024-01-15T08:29:52;99996.84;;;3.52
78859;BMP280;68210;52.032;4.634;2024-01-15T08:31:53;100004.50;;;3.70
78859;BMP280;68210;52.032;4.634;2024-01-15T08:33:53;100010.16;;;3.97
78859;BMP280;68210;52.032;4.634;2024-01-15T08:35:54;100011.00;;;4.50
78859;BMP280;68210;52.032;4.634;2024-01-15T08:37:55;100004.09;;;4.81
78859;BMP280;68210;52.032;4.634;2024-01-15T08:39:55;100002.22;;;5.25
78859;BMP280;68210;52.032;4.634;2024-01-15T08:41:55;100000.34;;;5.73
78859;BMP280;68210;52.032;4.634;2024-01-15T08:43:57;99994.47;;;6.30
78859;BMP280;68210;52.032;4.634;2024-01-15T08:45:57;99995.63;;;6.06
78859;BMP280;68210;52.032;4.634;2024-01-15T08:47:59;99988.47;;;5.98
78859;BMP280;68210;52.032;4.634;2024-01-15T08:50:00;99985.97;;;6.05
78859;BMP280;68210;52.032;4.634;2024-01-15T08:52:01;99990.69;;;6.07
78859;BMP280;68210;52.032;4.634;2024-01-15T08:54:01;99991.56;;;6.50
78859;BMP280;68210;52.032;4.634;2024-01-15T08:56:02;100010.38;;;6.89
78859;BMP280;68210;52.032;4.634;2024-01-15T08:58:02;100009.94;;;6.87
78859;BMP280;68210;52.032;4.634;2024-01-15T09:00:03;100029.63;;;7.03
78859;BMP280;68210;52.032;4.634;2024-01-15T09:02:04;100027.84;;;6.29
78859;BMP280;68210;52.032;4.634;2024-01-15T09:04:05;100046.25;;;5.44
78859;BMP280;68210;52.032;4.634;2024-01-15T09:06:05;100032.56;;;4.62
78859;BMP280;68210;52.032;4.634;2024-01-15T09:08:05;100053.69;;;4.43
78859;BMP280;68210;52.032;4.634;2024-01-15T09:10:07;100048.78;;;4.25
78859;BMP280;68210;52.032;4.634;2024-01-15T09:12:08;100048.28;;;4.31
78859;BMP280;68210;52.032;4.634;2024-01-15T09:14:08;100053.06;;;4.18
78859;BMP280;68210;52.032;4.634;2024-01-15T09:16:09;100047.41;;;3.91
78859;BMP280;68210;52.032;4.634;2024-01-15T09:18:09;100051.22;;;3.90
78859;BMP280;68210;52.032;4.634;2024-01-15T09:20:10;100047.00;;;3.80
78859;BMP280;68210;52.032;4.634;2024-01-15T09:22:10;100040.03;;;3.59
78859;BMP280;68210;52.032;4.634;2024-01-15T09:24:14;100036.75;;;3.54
78859;BMP280;68210;52.032;4.634;2024-01-15T09:26:15;100044.88;;;3.65
78859;BMP280;68210;52.032;4.634;2024-01-15T09:28:16;100049.59;;;3.68
78859;BMP280;68210;52.032;4.634;2024-01-15T09:30:16;100051.81;;;3.58
78859;BMP280;68210;52.032;4.634;2024-01-15T09:32:17;100046.28;;;3.63
78859;BMP280;68210;52.032;4.634;2024-01-15T09:34:18;100041.16;;;3.50
78859;BMP280;68210;52.032;4.634;2024-01-15T09:36:18;100032.16;;;3.54
78859;BMP280;68210;52.032;4.634;2024-01-15T09:38:19;100042.78;;;3.71
78859;BMP280;68210;52.032;4.634;2024-01-15T09:40:20;100046.53;;;3.78
78859;BMP280;68210;52.032;4.634;2024-01-15T09:42:23;100040.06;;;3.79
78859;BMP280;68210;52.032;4.634;2024-01-15T09:44:25;100049.31;;;3.53
78859;BMP280;68210;52.032;4.634;2024-01-15T09:46:26;100042.22;;;3.86
78859;BMP280;68210;52.032;4.634;2024-01-15T09:48:27;100039.97;;;3.96
78859;BMP280;68210;52.032;4.634;2024-01-15T09:50:27;100031.88;;;4.04
78859;BMP280;68210;52.032;4.634;2024-01-15T09:52:27;100021.44;;;4.31
78859;BMP280;68210;52.032;4.634;2024-01-15T09:54:28;100029.00;;;4.70
78859;BMP280;68210;52.032;4.634;2024-01-15T09:56:28;100025.81;;;5.20
78859;BMP280;68210;52.032;4.634;2024-01-15T09:58:29;100015.47;;;5.89
78859;BMP280;68210;52.032;4.634;2024-01-15T10:00:30;100027.63;;;6.34
78859;BMP280;68210;52.032;4.634;2024-01-15T10:02:33;100024.41;;;6.56
78859;BMP280;68210;52.032;4.634;2024-01-15T10:04:33;100032.13;;;6.18
78859;BMP280;68210;52.032;4.634;2024-01-15T10:06:34;100030.72;;;5.85
78859;BMP280;68210;52.032;4.634;2024-01-15T10:08:36;100028.81;;;5.86
78859;BMP280;68210;52.032;4.634;2024-01-15T10:10:37;100030.13;;;5.68
78859;BMP280;68210;52.032;4.634;2024-01-15T10:12:39;100040.66;;;5.61
78859;BMP280;68210;52.032;4.634;2024-01-15T10:14:40;100043.66;;;5.60
78859;BMP280;68210;52.032;4.634;2024-01-15T10:16:41;100042.59;;;5.96
78859;BMP280;68210;52.032;4.634;2024-01-15T10:18:42;100040.25;;;5.71
78859;BMP280;68210;52.032;4.634;2024-01-15T10:20:42;100039.66;;;5.10
78859;BMP280;68210;52.032;4.634;2024-01-15T10:22:44;100045.72;;;5.19
78859;BMP280;68210;52.032;4.634;2024-01-15T10:24:46;100039.84;;;4.93
78859;BMP280;68210;52.032;4.634;2024-01-15T10:26:47;100045.72;;;5.07
78859;BMP280;68210;52.032;4.634;2024-01-15T10:28:50;100033.44;;;4.86
78859;BMP280;68210;52.032;4.634;2024-01-15T10:30:55;100034.84;;;4.72
78859;BMP280;68210;52.032;4.634;2024-01-15T10:33:02;100041.09;;;4.76
78859;BMP280;68210;52.032;4.634;2024-01-15T10:35:03;100064.91;;;4.45
78859;BMP280;68210;52.032;4.634;2024-01-15T10:37:04;100068.91;;;4.11
78859;BMP280;68210;52.032;4.634;2024-01-15T10:39:06;100058.28;;;3.94
78859;BMP280;68210;52.032;4.634;2024-01-15T10:41:07;100059.44;;;3.85
78859;BMP280;68210;52.032;4.634;2024-01-15T10:43:08;100042.94;;;3.74
78859;BMP280;68210;52.032;4.634;2024-01-15T10:45:09;100046.84;;;3.77
78859;BMP280;68210;52.032;4.634;2024-01-15T10:47:09;100040.34;;;3.86
78859;BMP280;68210;52.032;4.634;2024-01-15T10:49:11;100056.28;;;4.11
78859;BMP280;68210;52.032;4.634;2024-01-15T10:51:12;100056.22;;;4.20
78859;BMP280;68210;52.032;4.634;2024-01-15T10:53:16;100051.91;;;4.47
78859;BMP280;68210;52.032;4.634;2024-01-15T10:55:17;100061.53;;;4.68
78859;BMP280;68210;52.032;4.634;2024-01-15T10:57:18;100061.72;;;4.83
78859;BMP280;68210;52.032;4.634;2024-01-15T10:59:21;100054.25;;;4.89
78859;BMP280;68210;52.032;4.634;2024-01-15T11:01:23;100046.88;;;4.98
78859;BMP280;68210;52.032;4.634;2024-01-15T11:03:23;100051.59;;;5.01
78859;BMP280;68210;52.032;4.634;2024-01-15T11:05:25;100039.59;;;4.86
78859;BMP280;68210;52.032;4.634;2024-01-15T11:07:26;100039.13;;;4.84
78859;BMP280;68210;52.032;4.634;2024-01-15T11:09:27;100052.03;;;4.71
78859;BMP280;68210;52.032;4.634;2024-01-15T11:11:27;100045.41;;;4.88
78859;BMP280;68210;52.032;4.634;2024-01-15T11:15:57;100038.16;;;5.01
78859;BMP280;68210;52.032;4.634;2024-01-15T11:17:58;100045.72;;;5.07
78859;BMP280;68210;52.032;4.634;2024-01-15T11:20:00;100045.22;;;4.93
78859;BMP280;68210;52.032;4.634;2024-01-15T11:22:10;100043.47;;;5.09
78859;BMP280;68210;52.032;4.634;2024-01-15T11:24:35;100041.38;;;5.14
78859;BMP280;68210;52.032;4.634;2024-01-15T11:26:46;100037.44;;;5.12
78859;BMP280;68210;52.032;4.634;2024-01-15T11:28:47;100044.06;;;5.26
78859;BMP280;68210;52.032;4.634;2024-01-15T11:30:48;100045.78;;;5.31
78859;BMP280;68210;52.032;4.634;2024-01-15T11:32:49;100050.50;;;5.45
78859;BMP280;68210;52.032;4.634;2024-01-15T11:34:57;100075.72;;;5.09
78859;BMP280;68210;52.032;4.634;2024-01-15T11:37:04;100093.34;;;4.58
78859;BMP280;68210;52.032;4.634;2024-01-15T11:41:30;100082.41;;;4.22
78859;BMP280;68210;52.032;4.634;2024-01-15T11:43:31;100092.28;;;4.02